Time;durP1;ratioP1;P1;durP2;ratioP2;P2;SDS_P1;SDS_P2;PMS_P1;PMS_P2;Temp;Humidity;BMP_temperature;BMP_pressure;BME280_temperature;BME280_humidity;BME280_pressure;Samples;Min_cycle;Max_cycle;Signal;HPM_P1;HPM_P2
2022/04/19 00:00:16;;;;;;;11.20;4.95;;;9.70;97.30;;;;;;6211207;23;20028;-75
2022/04/19 00:02:42;;;;;;;9.70;5.72;;;9.70;97.40;;;;;;6213173;23;20078;-76
2022/04/19 00:05:09;;;;;;;10.38;6.18;;;9.70;97.50;;;;;;6211769;23;20025;-74
2022/04/19 00:07:38;;;;;;;9.88;5.85;;;9.70;97.60;;;;;;6212392;23;20052;-75
2022/04/19 00:10:07;;;;;;;10.55;5.80;;;9.60;98.00;;;;;;6190527;23;20036;-74
2022/04/19 00:12:36;;;;;;;12.32;5.85;;;9.50;98.10;;;;;;6190923;23;20024;-74
2022/04/19 00:15:07;;;;;;;10.55;5.40;;;9.50;98.30;;;;;;6218514;23;20078;-74
2022/04/19 00:17:42;;;;;;;12.52;5.90;;;9.40;98.50;;;;;;6218436;23;20020;-74
2022/04/19 00:20:16;;;;;;;9.77;5.82;;;9.40;98.70;;;;;;6216247;23;20036;-75
2022/04/19 00:22:45;;;;;;;11.10;6.25;;;9.30;98.60;;;;;;6211313;23;20082;-75
2022/04/19 00:25:15;;;;;;;10.40;5.32;;;9.30;98.60;;;;;;6211124;23;20028;-75
2022/04/19 00:27:51;;;;;;;11.75;5.47;;;9.30;98.70;;;;;;6209907;23;20021;-75
2022/04/19 00:30:38;;;;;;;8.70;4.88;;;9.30;98.80;;;;;;6125192;23;20088;-75
2022/04/19 00:33:09;;;;;;;12.35;5.78;;;9.20;98.80;;;;;;6149886;23;20029;-76
2022/04/19 00:35:54;;;;;;;10.90;4.95;;;9.20;98.80;;;;;;6107190;23;20508;-75
2022/04/19 00:38:23;;;;;;;10.27;5.13;;;9.20;98.90;;;;;;6102580;23;20033;-74
2022/04/19 00:40:49;;;;;;;10.85;6.63;;;9.10;99.00;;;;;;6151855;23;20017;-75
2022/04/19 00:43:21;;;;;;;11.20;6.05;;;9.10;99.20;;;;;;6151869;23;20057;-75
2022/04/19 00:45:48;;;;;;;9.65;5.85;;;9.00;99.40;;;;;;6103500;23;20068;-74
2022/04/19 00:48:16;;;;;;;10.90;6.13;;;9.00;99.70;;;;;;6151308;23;20097;-75
2022/04/19 00:50:47;;;;;;;11.85;6.68;;;8.90;99.70;;;;;;6127822;23;20068;-74
2022/04/19 00:53:21;;;;;;;9.88;5.82;;;8.90;99.90;;;;;;6103085;23;20064;-74
2022/04/19 00:55:47;;;;;;;11.40;5.32;;;8.80;99.90;;;;;;6151730;23;20025;-73
2022/04/19 00:58:13;;;;;;;10.18;6.30;;;8.70;99.90;;;;;;6160632;23;20025;-75
2022/04/19 01:00:43;;;;;;;10.85;6.03;;;8.70;99.90;;;;;;6156602;23;20025;-75
2022/04/19 01:03:11;;;;;;;9.63;5.25;;;8.60;99.90;;;;;;6156448;23;20457;-75
2022/04/19 01:05:47;;;;;;;10.02;5.47;;;8.60;99.90;;;;;;6156364;23;20108;-73
2022/04/19 01:08:15;;;;;;;9.93;5.60;;;8.60;99.90;;;;;;6130631;23;20022;-74
2022/04/19 01:10:47;;;;;;;12.57;6.22;;;8.60;99.90;;;;;;6182115;23;20380;-75
2022/04/19 01:13:22;;;;;;;11.40;5.15;;;8.60;99.90;;;;;;6178819;23;20021;-74
2022/04/19 01:15:55;;;;;;;11.38;6.18;;;8.70;99.90;;;;;;6157187;23;20028;-75
2022/04/19 01:18:42;;;;;;;12.00;6.45;;;8.70;99.90;;;;;;6182093;23;20475;-74
2022/04/19 01:21:08;;;;;;;10.40;5.72;;;8.70;99.90;;;;;;6195602;23;20025;-74
2022/04/19 01:23:38;;;;;;;11.98;5.55;;;8.80;99.90;;;;;;6212921;23;20460;-74
2022/04/19 01:26:06;;;;;;;11.85;6.13;;;8.80;99.90;;;;;;6187602;23;20484;-74
2022/04/19 01:28:33;;;;;;;10.52;5.97;;;8.80;99.90;;;;;;6238311;23;20024;-75
2022/04/19 01:30:59;;;;;;;11.70;6.22;;;8.80;99.90;;;;;;6212539;23;20025;-75
2022/04/19 01:33:25;;;;;;;13.02;6.10;;;8.80;99.90;;;;;;6214490;23;20118;-76
2022/04/19 01:35:51;;;;;;;10.98;6.40;;;8.80;99.90;;;;;;6212116;23;20024;-75
2022/04/19 01:38:17;;;;;;;10.73;5.32;;;8.70;99.90;;;;;;6187381;23;20028;-75
2022/04/19 01:40:46;;;;;;;9.13;4.97;;;8.70;99.90;;;;;;6236561;23;20024;-75
2022/04/19 01:43:15;;;;;;;15.18;6.60;;;8.60;99.90;;;;;;6213814;23;20017;-74
2022/04/19 01:45:41;;;;;;;11.70;6.22;;;8.60;99.90;;;;;;6214649;23;20104;-75
2022/04/19 01:48:08;;;;;;;11.77;6.40;;;8.50;99.90;;;;;;6213566;23;20028;-75
2022/04/19 01:50:37;;;;;;;11.48;5.65;;;8.50;99.90;;;;;;6187919;23;20120;-75
2022/04/19 01:53:03;;;;;;;10.10;6.43;;;8.40;99.90;;;;;;6214835;23;20020;-75
2022/04/19 01:55:32;;;;;;;11.00;5.78;;;8.40;99.90;;;;;;6213324;23;20028;-74
2022/04/19 01:58:01;;;;;;;9.75;6.10;;;8.30;99.90;;;;;;6214157;23;20040;-75
2022/04/19 02:00:31;;;;;;;9.27;6.22;;;8.30;99.90;;;;;;6187519;23;20024;-74
2022/04/19 02:02:59;;;;;;;11.23;5.93;;;8.10;99.90;;;;;;6211602;23;20056;-73
2022/04/19 02:05:40;;;;;;;11.10;5.70;;;8.00;99.90;;;;;;6213561;23;20336;-74
2022/04/19 02:08:07;;;;;;;10.82;6.07;;;7.90;99.90;;;;;;6213756;23;20065;-75
2022/04/19 02:10:33;;;;;;;11.63;6.93;;;7.90;99.90;;;;;;6211773;23;20051;-76
2022/04/19 02:12:58;;;;;;;12.30;6.40;;;7.90;99.90;;;;;;6212187;23;20024;-73
2022/04/19 02:15:24;;;;;;;11.10;6.50;;;7.80;99.90;;;;;;6212588;23;20028;-75
2022/04/19 02:17:50;;;;;;;10.40;5.72;;;7.70;99.90;;;;;;6232745;23;20059;-74
2022/04/19 02:20:17;;;;;;;12.85;6.07;;;7.70;99.90;;;;;;6211804;23;20032;-76
2022/04/19 02:22:46;;;;;;;10.88;6.30;;;7.70;99.90;;;;;;6186630;23;20023;-75
2022/04/19 02:25:15;;;;;;;11.00;5.85;;;7.60;99.90;;;;;;6212556;23;20079;-75
2022/04/19 02:27:42;;;;;;;10.48;5.60;;;7.50;99.90;;;;;;6188000;23;20632;-75
2022/04/19 02:30:13;;;;;;;10.93;6.43;;;7.50;99.90;;;;;;6210320;23;20035;-75
2022/04/19 02:32:41;;;;;;;10.93;6.18;;;7.40;99.90;;;;;;6212035;23;20028;-74
2022/04/19 02:35:07;;;;;;;12.15;5.25;;;7.40;99.90;;;;;;6187477;23;20103;-75
2022/04/19 02:37:32;;;;;;;10.32;5.78;;;7.30;99.90;;;;;;6213000;23;20059;-74
2022/04/19 02:40:08;;;;;;;9.75;5.38;;;7.30;99.90;;;;;;6238175;23;20021;-74
2022/04/19 02:42:38;;;;;;;9.73;5.85;;;7.30;99.90;;;;;;6213471;23;20021;-75
2022/04/19 02:45:07;;;;;;;8.63;5.03;;;7.20;99.90;;;;;;6212177;23;20021;-75
2022/04/19 02:47:34;;;;;;;10.98;5.22;;;7.20;99.90;;;;;;6211214;23;20024;-75
2022/04/19 02:50:08;;;;;;;12.32;6.25;;;7.20;99.90;;;;;;6212066;23;20028;-75
2022/04/19 02:52:33;;;;;;;12.02;6.63;;;7.10;99.90;;;;;;6186888;23;20403;-75
2022/04/19 02:55:07;;;;;;;10.45;6.05;;;7.10;99.90;;;;;;6213776;23;20027;-75
2022/04/19 02:57:34;;;;;;;12.10;6.22;;;7.00;99.90;;;;;;6180090;23;20024;-75
2022/04/19 03:00:04;;;;;;;11.20;6.13;;;7.00;99.90;;;;;;6210139;23;20017;-75
2022/04/19 03:02:30;;;;;;;10.82;5.90;;;6.90;99.90;;;;;;6209604;23;20028;-75
2022/04/19 03:04:56;;;;;;;11.18;6.28;;;6.90;99.90;;;;;;6161886;23;20021;-75
2022/04/19 03:07:23;;;;;;;9.35;5.90;;;6.90;99.90;;;;;;6213522;23;20031;-74
2022/04/19 03:09:55;;;;;;;11.93;6.00;;;6.90;99.90;;;;;;6211008;23;20020;-75
2022/04/19 03:12:24;;;;;;;12.55;6.60;;;6.90;99.90;;;;;;6213432;23;20399;-76
2022/04/19 03:14:49;;;;;;;11.18;6.35;;;7.00;99.90;;;;;;6211844;23;20024;-77
2022/04/19 03:17:16;;;;;;;13.10;6.72;;;7.00;99.90;;;;;;6211411;23;20028;-74
2022/04/19 03:19:47;;;;;;;12.18;6.55;;;7.00;99.90;;;;;;6211712;23;20078;-75
2022/04/19 03:22:15;;;;;;;13.05;7.32;;;7.10;99.90;;;;;;6210682;23;20254;-74
2022/04/19 03:27:57;;;;;;;13.25;7.97;;;7.00;99.90;;;;;;6212624;23;20039;-76
2022/04/19 03:30:24;;;;;;;13.98;7.45;;;7.00;99.90;;;;;;6210717;23;20471;-75
2022/04/19 03:32:52;;;;;;;13.63;7.85;;;7.00;99.90;;;;;;6212067;23;20024;-75
2022/04/19 03:35:21;;;;;;;12.77;7.18;;;7.00;99.90;;;;;;6236504;23;20089;-75
2022/04/19 03:37:52;;;;;;;13.52;7.32;;;7.00;99.90;;;;;;6211812;23;20067;-75
2022/04/19 03:40:25;;;;;;;15.85;8.18;;;6.90;99.90;;;;;;6235793;23;20086;-76
2022/04/19 03:43:06;;;;;;;11.73;6.93;;;7.00;99.90;;;;;;6213056;23;20028;-74
2022/04/19 03:45:34;;;;;;;13.32;8.25;;;6.90;99.90;;;;;;6211438;23;20388;-75
2022/04/19 03:48:05;;;;;;;13.25;7.60;;;6.90;99.90;;;;;;6211247;23;20060;-75
2022/04/19 03:50:31;;;;;;;12.75;7.50;;;6.90;99.90;;;;;;6210379;23;20024;-75
2022/04/19 03:53:02;;;;;;;12.38;7.57;;;6.90;99.90;;;;;;6211391;23;20032;-74
2022/04/19 03:55:27;;;;;;;14.45;8.43;;;6.90;99.90;;;;;;6211430;23;20542;-76
2022/04/19 03:57:54;;;;;;;12.82;7.03;;;6.90;99.90;;;;;;6210440;23;20024;-75
2022/04/19 04:00:21;;;;;;;18.95;7.63;;;6.80;99.90;;;;;;6211730;23;20029;-74
2022/04/19 04:02:49;;;;;;;14.48;8.15;;;6.80;99.90;;;;;;6213027;23;20021;-73
2022/04/19 04:05:17;;;;;;;13.43;7.50;;;6.80;99.90;;;;;;6188912;23;20024;-74
2022/04/19 04:07:44;;;;;;;12.77;6.93;;;6.80;99.90;;;;;;6213985;23;20028;-75
2022/04/19 04:10:11;;;;;;;15.02;8.18;;;6.80;99.90;;;;;;6207845;23;20051;-75
2022/04/19 04:12:38;;;;;;;13.57;7.93;;;6.80;99.90;;;;;;6213862;23;20025;-75
2022/04/19 04:15:06;;;;;;;12.93;7.18;;;6.80;99.90;;;;;;6213704;23;20388;-75
2022/04/19 04:17:37;;;;;;;12.55;7.32;;;6.80;99.90;;;;;;6215125;23;20372;-74
2022/04/19 04:20:10;;;;;;;12.43;7.15;;;6.70;99.90;;;;;;6213475;23;20021;-75
2022/04/19 04:22:37;;;;;;;12.70;8.18;;;6.70;99.90;;;;;;6213241;23;20036;-76
2022/04/19 04:25:03;;;;;;;12.50;7.30;;;6.70;99.90;;;;;;6213123;23;20348;-74
2022/04/19 04:27:31;;;;;;;15.13;7.28;;;6.70;99.90;;;;;;6212710;23;20103;-73
2022/04/19 04:30:01;;;;;;;12.82;7.70;;;6.70;99.90;;;;;;6164344;23;20029;-75
2022/04/19 04:32:44;;;;;;;14.43;8.13;;;6.70;99.90;;;;;;6214133;23;20329;-75
2022/04/19 04:35:11;;;;;;;12.32;7.57;;;6.70;99.90;;;;;;6214980;23;20025;-76
2022/04/19 04:37:39;;;;;;;15.68;8.00;;;6.70;99.90;;;;;;6188696;23;20133;-74
2022/04/19 04:40:08;;;;;;;12.90;7.53;;;6.70;99.90;;;;;;6213238;23;20025;-75
2022/04/19 04:42:33;;;;;;;12.88;7.22;;;6.70;99.90;;;;;;6214579;23;20028;-74
2022/04/19 04:44:59;;;;;;;14.02;7.57;;;6.70;99.90;;;;;;6215929;23;20024;-75
2022/04/19 04:50:11;;;;;;;14.20;7.43;;;6.70;99.90;;;;;;6216896;23;20027;-75
2022/04/19 04:52:38;;;;;;;13.27;7.47;;;6.70;99.90;;;;;;6217917;23;20028;-74
2022/04/19 04:55:07;;;;;;;14.82;7.28;;;6.70;99.90;;;;;;6189650;23;20452;-73
2022/04/19 04:57:33;;;;;;;15.07;7.38;;;6.80;99.90;;;;;;6213033;23;20024;-74
2022/04/19 05:00:04;;;;;;;14.30;8.07;;;6.80;99.90;;;;;;6211084;23;20461;-75
2022/04/19 05:02:32;;;;;;;13.52;8.15;;;6.90;99.90;;;;;;6212796;23;20353;-74
2022/04/19 05:05:00;;;;;;;15.10;7.90;;;6.90;99.90;;;;;;6240251;23;20499;-75
2022/04/19 05:07:26;;;;;;;15.93;8.05;;;7.00;99.90;;;;;;6213421;23;20095;-74
2022/04/19 05:09:52;;;;;;;17.60;7.57;;;7.10;99.90;;;;;;6212996;23;20475;-75
2022/04/19 05:12:18;;;;;;;13.27;7.53;;;7.10;99.90;;;;;;6162884;23;20028;-75
2022/04/19 05:14:44;;;;;;;16.42;7.85;;;7.20;99.90;;;;;;6214528;23;20466;-74
2022/04/19 05:17:12;;;;;;;14.32;7.32;;;7.30;99.90;;;;;;6213229;23;20032;-74
2022/04/19 05:19:38;;;;;;;17.65;9.32;;;7.40;99.90;;;;;;6212176;23;20029;-74
2022/04/19 05:22:04;;;;;;;14.77;7.18;;;7.50;99.90;;;;;;6212677;23;20024;-75
2022/04/19 05:24:34;;;;;;;14.23;7.80;;;7.60;99.90;;;;;;6212395;23;20119;-76
2022/04/19 05:27:01;;;;;;;14.05;7.75;;;7.70;99.90;;;;;;6212299;23;20352;-75
2022/04/19 05:29:32;;;;;;;15.73;7.63;;;7.80;99.90;;;;;;6212884;23;20111;-75
2022/04/19 05:31:58;;;;;;;15.77;7.80;;;7.90;99.90;;;;;;6212289;23;20035;-75
2022/04/19 05:34:24;;;;;;;14.18;7.57;;;8.00;99.90;;;;;;6187275;23;20025;-74
2022/04/19 05:36:52;;;;;;;15.18;8.02;;;8.10;99.90;;;;;;6212478;23;20024;-75
2022/04/19 05:39:18;;;;;;;14.68;7.85;;;8.20;99.90;;;;;;6214524;23;20028;-75
2022/04/19 05:41:44;;;;;;;15.23;8.07;;;8.30;99.90;;;;;;6212360;23;20384;-74
2022/04/19 05:44:10;;;;;;;13.90;7.90;;;8.40;99.90;;;;;;6212276;23;20028;-74
2022/04/19 05:46:36;;;;;;;15.43;7.47;;;8.50;99.90;;;;;;6211257;23;20029;-74
2022/04/19 05:49:08;;;;;;;17.13;8.07;;;8.60;99.90;;;;;;6212103;23;20024;-75
2022/04/19 05:51:34;;;;;;;13.63;7.80;;;8.70;99.90;;;;;;6212338;23;20039;-73
2022/04/19 05:54:00;;;;;;;14.60;7.32;;;8.80;99.90;;;;;;6212507;23;20078;-75
2022/04/19 05:56:26;;;;;;;16.35;8.02;;;8.90;99.90;;;;;;6213958;23;20148;-75
2022/04/19 05:58:52;;;;;;;11.82;7.00;;;9.00;99.90;;;;;;6212583;23;20055;-75
2022/04/19 06:01:18;;;;;;;16.50;10.15;;;9.10;99.90;;;;;;6212811;23;20060;-75
2022/04/19 06:06:29;;;;;;;13.48;7.20;;;9.30;99.90;;;;;;6212691;23;20021;-74
2022/04/19 06:08:55;;;;;;;13.93;7.22;;;9.40;99.90;;;;;;6212369;23;20086;-74
2022/04/19 06:11:23;;;;;;;16.42;7.93;;;9.50;99.90;;;;;;6212120;23;20024;-74
2022/04/19 06:13:52;;;;;;;14.18;7.50;;;9.60;99.90;;;;;;6237584;23;20024;-74
2022/04/19 06:16:18;;;;;;;16.40;7.78;;;9.80;99.90;;;;;;6211883;23;20086;-75
2022/04/19 06:18:53;;;;;;;13.77;8.38;;;9.90;99.90;;;;;;6189475;23;20097;-76
2022/04/19 06:21:19;;;;;;;13.82;8.13;;;10.00;99.90;;;;;;6212098;23;20519;-75
2022/04/19 06:23:45;;;;;;;13.75;7.20;;;10.20;99.90;;;;;;6212653;23;20021;-75
2022/04/19 06:26:10;;;;;;;17.85;8.35;;;10.30;99.90;;;;;;6237295;22;20027;-75
2022/04/19 06:28:36;;;;;;;14.68;7.57;;;10.40;99.90;;;;;;6212055;23;20024;-75
2022/04/19 06:31:02;;;;;;;12.48;7.30;;;10.60;99.90;;;;;;6211950;23;20021;-75
2022/04/19 06:33:28;;;;;;;12.45;7.75;;;10.70;99.90;;;;;;6211783;23;20103;-74
2022/04/19 06:35:54;;;;;;;12.02;7.22;;;10.80;99.90;;;;;;6236867;23;20025;-75
2022/04/19 06:38:20;;;;;;;16.35;7.97;;;10.90;99.90;;;;;;6211654;23;20070;-75
2022/04/19 06:40:45;;;;;;;22.35;8.25;;;11.10;99.90;;;;;;6213869;23;20028;-76
2022/04/19 06:43:11;;;;;;;15.85;7.43;;;11.10;99.90;;;;;;6212205;23;20449;-76
2022/04/19 06:45:41;;;;;;;16.13;8.90;;;11.20;99.90;;;;;;6211763;23;20021;-75
2022/04/19 06:48:07;;;;;;;13.85;8.05;;;11.30;99.90;;;;;;6211716;23;20021;-76
2022/04/19 06:50:34;;;;;;;15.35;7.82;;;11.40;99.90;;;;;;6211923;23;20024;-76
2022/04/19 06:53:03;;;;;;;16.08;7.38;;;11.50;99.90;;;;;;6211857;23;20016;-75
2022/04/19 06:55:28;;;;;;;17.90;7.93;;;11.60;99.90;;;;;;6212161;23;20127;-76
2022/04/19 06:57:54;;;;;;;12.70;7.15;;;11.70;99.90;;;;;;6237314;23;20111;-76
2022/04/19 07:00:21;;;;;;;15.00;7.32;;;11.90;99.90;;;;;;6211749;23;20450;-76
2022/04/19 07:02:48;;;;;;;11.05;7.20;;;12.00;99.90;;;;;;6209123;23;20024;-75
2022/04/19 07:05:15;;;;;;;13.38;7.85;;;12.10;99.90;;;;;;6211257;23;20031;-75
2022/04/19 07:07:43;;;;;;;12.95;6.90;;;12.30;99.90;;;;;;6187848;23;20471;-75
2022/04/19 07:10:12;;;;;;;12.30;7.10;;;12.50;99.90;;;;;;6214839;23;20017;-77
2022/04/19 07:12:40;;;;;;;11.52;6.53;;;12.60;99.90;;;;;;6212907;23;20032;-77
2022/04/19 07:15:07;;;;;;;13.70;7.03;;;12.80;99.90;;;;;;6214265;23;20103;-76
2022/04/19 07:17:37;;;;;;;12.48;5.45;;;12.90;99.90;;;;;;6215964;23;20036;-79
2022/04/19 07:28:53;;;;;;;12.07;5.72;;;13.70;98.70;;;;;;6190968;23;20024;-76
2022/04/19 07:31:22;;;;;;;10.13;5.28;;;13.80;98.20;;;;;;6211385;23;20025;-76
2022/04/19 07:33:49;;;;;;;10.48;5.10;;;14.00;97.50;;;;;;6186949;23;20163;-75
2022/04/19 07:36:16;;;;;;;8.80;5.43;;;14.20;97.00;;;;;;6211445;23;20119;-77
2022/04/19 07:38:42;;;;;;;11.25;5.63;;;14.40;97.00;;;;;;6213606;23;20355;-75
2022/04/19 07:41:08;;;;;;;10.90;4.63;;;14.50;96.30;;;;;;6211493;23;20062;-78
2022/04/19 07:43:34;;;;;;;12.00;4.78;;;14.60;95.80;;;;;;6211406;23;20094;-76
2022/04/19 07:46:02;;;;;;;11.13;5.40;;;14.60;95.50;;;;;;6210666;23;20024;-77
2022/04/19 07:48:29;;;;;;;7.80;4.85;;;14.80;95.40;;;;;;6212127;23;20020;-77
2022/04/19 07:50:54;;;;;;;10.55;5.75;;;14.90;95.20;;;;;;6211523;23;20052;-75
2022/04/19 07:53:21;;;;;;;9.02;5.40;;;15.00;95.10;;;;;;6211628;23;20051;-77
2022/04/19 07:55:47;;;;;;;13.75;5.75;;;15.20;95.20;;;;;;6210765;23;20028;-76
2022/04/19 07:58:13;;;;;;;13.50;6.18;;;15.40;95.30;;;;;;6211734;23;20027;-76
2022/04/19 08:00:39;;;;;;;10.05;5.15;;;15.50;94.90;;;;;;6211337;23;20356;-76
2022/04/19 08:03:08;;;;;;;8.57;5.18;;;15.70;94.40;;;;;;6211186;23;20359;-78
2022/04/19 08:05:39;;;;;;;11.05;5.07;;;15.80;93.60;;;;;;6165100;23;20076;-76
2022/04/19 08:08:05;;;;;;;8.38;4.65;;;15.90;93.30;;;;;;6186859;23;20495;-76
2022/04/19 08:10:31;;;;;;;8.40;4.95;;;15.90;92.80;;;;;;6211938;23;20055;-77
2022/04/19 08:12:57;;;;;;;9.98;4.95;;;15.90;92.40;;;;;;6213497;23;20348;-77
2022/04/19 08:15:27;;;;;;;7.93;4.18;;;16.00;92.30;;;;;;6211607;23;20021;-76
2022/04/19 08:17:56;;;;;;;8.00;4.35;;;16.10;91.70;;;;;;6236433;23;20095;-76
2022/04/19 08:20:23;;;;;;;6.95;4.22;;;16.10;91.60;;;;;;6211338;23;20159;-77
2022/04/19 08:22:49;;;;;;;6.88;3.97;;;16.20;91.60;;;;;;6211336;23;20021;-77
2022/04/19 08:25:15;;;;;;;6.85;3.33;;;16.30;91.40;;;;;;6236559;23;20456;-77
2022/04/19 08:27:48;;;;;;;7.88;3.38;;;16.50;90.50;;;;;;6236567;23;20491;-76
2022/04/19 08:30:18;;;;;;;8.07;2.97;;;16.60;88.60;;;;;;6211282;23;20103;-77
2022/04/19 08:32:45;;;;;;;8.13;3.50;;;16.70;88.00;;;;;;6187323;23;20024;-79
2022/04/19 08:35:12;;;;;;;7.25;3.22;;;16.90;85.30;;;;;;6211188;23;20024;-77
2022/04/19 08:37:40;;;;;;;5.25;2.80;;;16.90;84.60;;;;;;6211272;23;20074;-77
2022/04/19 08:40:39;;;;;;;10.52;2.70;;;16.90;80.80;;;;;;6211236;23;20028;-78
2022/04/19 08:43:05;;;;;;;5.13;2.63;;;17.10;78.00;;;;;;6125599;23;20024;-76
2022/04/19 08:45:33;;;;;;;4.15;2.30;;;17.20;79.90;;;;;;6101094;23;20397;-77
2022/04/19 08:48:01;;;;;;;3.80;1.73;;;17.30;73.70;;;;;;6124989;23;20021;-75
2022/04/19 08:50:30;;;;;;;4.75;1.70;;;17.50;69.80;;;;;;6077641;23;20033;-78
2022/04/19 08:58:29;;;;;;;4.63;1.52;;;17.80;58.40;;;;;;6127471;23;20022;-76
2022/04/19 09:01:06;;;;;;;3.42;1.52;;;17.90;57.40;;;;;;6102114;23;20036;-76
2022/04/19 09:03:38;;;;;;;8.02;1.83;;;18.10;57.30;;;;;;6102242;23;20075;-77
2022/04/19 09:06:04;;;;;;;5.60;1.98;;;18.20;56.60;;;;;;6078541;23;20021;-77
2022/04/19 09:08:29;;;;;;;5.20;1.77;;;18.30;54.90;;;;;;6127936;23;20025;-77
2022/04/19 09:11:33;;;;;;;7.57;1.73;;;18.40;53.70;;;;;;6128067;23;20142;-78
2022/04/19 09:14:05;;;;;;;7.07;1.42;;;18.40;51.00;;;;;;6165150;23;20020;-77
2022/04/19 09:16:31;;;;;;;4.28;1.20;;;18.20;49.60;;;;;;6213263;23;20036;-77
2022/04/19 09:18:57;;;;;;;4.25;1.27;;;18.30;50.80;;;;;;6218273;23;20023;-77
2022/04/19 09:21:40;;;;;;;3.00;1.20;;;18.20;49.60;;;;;;6197800;23;20044;-78
2022/04/19 09:24:19;;;;;;;2.55;1.00;;;18.20;49.10;;;;;;6195220;23;20024;-82
2022/04/19 09:26:48;;;;;;;4.05;1.23;;;18.20;48.10;;;;;;6218511;23;20376;-78
2022/04/19 09:29:28;;;;;;;16.50;1.83;;;18.20;49.50;;;;;;6220005;23;20028;-76
2022/04/19 09:31:58;;;;;;;4.53;1.15;;;18.20;48.70;;;;;;6218919;23;20031;-77
2022/04/19 09:34:48;;;;;;;3.88;1.40;;;18.30;50.40;;;;;;6193318;23;20348;-76
2022/04/19 09:37:14;;;;;;;3.13;1.40;;;18.40;50.50;;;;;;6190984;23;20025;-75
2022/04/19 09:39:41;;;;;;;4.80;1.73;;;18.50;50.70;;;;;;6216435;23;20063;-78
2022/04/19 09:42:16;;;;;;;3.58;1.45;;;18.50;50.50;;;;;;6213080;23;20025;-76
2022/04/19 09:44:52;;;;;;;7.80;1.58;;;18.60;50.20;;;;;;6188088;23;20017;-79
2022/04/19 09:47:19;;;;;;;9.02;3.05;;;18.70;50.30;;;;;;6188130;23;20409;-78
2022/04/19 09:49:53;;;;;;;3.65;1.67;;;18.90;50.30;;;;;;6214342;23;20344;-77
2022/04/19 09:52:24;;;;;;;5.28;1.90;;;19.00;49.70;;;;;;6212637;23;20095;-77
2022/04/19 09:55:10;;;;;;;3.78;1.67;;;19.10;50.00;;;;;;6212930;23;20398;-77
2022/04/19 09:57:40;;;;;;;6.05;1.63;;;19.10;48.90;;;;;;6213235;23;20028;-76
2022/04/19 10:00:16;;;;;;;5.97;2.72;;;19.20;49.10;;;;;;6216148;23;20079;-76
2022/04/19 10:08:13;;;;;;;4.50;1.80;;;19.50;50.20;;;;;;6213829;23;20082;-76
2022/04/19 10:10:41;;;;;;;5.43;1.83;;;19.60;49.90;;;;;;6212391;23;20051;-77
2022/04/19 10:13:07;;;;;;;4.80;1.80;;;19.60;49.10;;;;;;6163314;23;20341;-78
2022/04/19 10:15:34;;;;;;;6.07;2.67;;;19.70;48.50;;;;;;6214569;23;20028;-78
2022/04/19 10:18:00;;;;;;;5.85;2.78;;;19.70;48.70;;;;;;6187845;23;20039;-77
2022/04/19 10:20:31;;;;;;;4.85;2.58;;;20.00;49.10;;;;;;6187907;23;20432;-78
2022/04/19 10:23:01;;;;;;;4.30;2.03;;;20.10;48.50;;;;;;6212639;23;20016;-77
2022/04/19 10:25:46;;;;;;;7.97;2.35;;;20.30;48.30;;;;;;6212556;23;20135;-79
2022/04/19 10:28:30;;;;;;;5.80;2.10;;;20.60;49.00;;;;;;6212108;23;20028;-77
2022/04/19 10:31:03;;;;;;;11.18;2.95;;;20.70;48.30;;;;;;6237092;23;20032;-77
2022/04/19 10:33:41;;;;;;;5.20;2.92;;;20.70;47.50;;;;;;6186930;23;20483;-78
2022/04/19 10:36:34;;;;;;;5.28;2.80;;;20.80;47.80;;;;;;6186591;23;20025;-76
2022/04/19 10:39:21;;;;;;;6.90;2.55;;;20.90;47.30;;;;;;6212258;23;20059;-77
2022/04/19 10:41:56;;;;;;;4.13;2.22;;;21.10;47.70;;;;;;6211474;23;20024;-78
2022/04/19 10:44:31;;;;;;;4.72;2.53;;;21.00;48.10;;;;;;6211743;23;20072;-76
2022/04/19 10:47:17;;;;;;;5.68;2.60;;;21.20;47.40;;;;;;6211836;23;20032;-78
2022/04/19 10:50:07;;;;;;;4.57;2.97;;;21.50;47.20;;;;;;6207916;23;20333;-77
2022/04/19 10:52:43;;;;;;;11.27;2.38;;;21.50;45.60;;;;;;6212810;23;20021;-78
2022/04/19 10:55:29;;;;;;;4.30;2.33;;;21.50;46.00;;;;;;6211829;23;20025;-77
2022/04/19 11:00:57;;;;;;;7.13;2.38;;;21.60;45.50;;;;;;6190609;23;20017;-79
2022/04/19 11:03:25;;;;;;;12.05;3.20;;;21.80;46.00;;;;;;6213477;23;20028;-78
2022/04/19 11:06:31;;;;;;;5.97;2.50;;;21.80;45.90;;;;;;6186663;23;20078;-79
2022/04/19 11:09:14;;;;;;;5.32;2.10;;;21.90;44.40;;;;;;6211793;23;20348;-78
2022/04/19 11:11:51;;;;;;;4.60;1.95;;;21.90;44.20;;;;;;6211802;23;20031;-78
2022/04/19 11:14:22;;;;;;;5.18;2.00;;;22.10;43.50;;;;;;6186813;23;20024;-78
2022/04/19 11:16:56;;;;;;;4.45;1.90;;;22.20;43.30;;;;;;6186006;23;20141;-80
2022/04/19 11:19:24;;;;;;;4.03;1.70;;;22.30;44.10;;;;;;6162770;23;20028;-77
2022/04/19 11:21:56;;;;;;;6.60;2.00;;;22.50;43.70;;;;;;6211836;23;20016;-77
2022/04/19 11:25:03;;;;;;;8.68;2.95;;;22.60;42.50;;;;;;6160724;23;20452;-76
2022/04/19 11:27:54;;;;;;;5.82;2.92;;;22.90;43.20;;;;;;6187261;23;20344;-78
2022/04/19 11:30:21;;;;;;;6.50;2.20;;;23.10;42.30;;;;;;6211576;23;20052;-78
2022/04/19 11:33:31;;;;;;;8.10;2.92;;;23.00;42.50;;;;;;6210794;23;20496;-79
2022/04/19 11:36:07;;;;;;;5.05;1.92;;;23.10;41.30;;;;;;6101892;23;20025;-79
2022/04/19 11:38:48;;;;;;;5.75;2.50;;;23.20;41.30;;;;;;6150906;23;20025;-78
2022/04/19 11:46:46;;;;;;;5.45;2.42;;;23.20;41.30;;;;;;6126433;23;20033;-77
2022/04/19 11:49:33;;;;;;;4.93;2.10;;;23.20;41.20;;;;;;6127291;23;20597;-77
2022/04/19 11:52:08;;;;;;;;;;;23.40;41.10;;;;;;6126826;23;20458;-75
2022/04/19 11:54:43;;;;;;;4.40;2.03;;;23.80;41.10;;;;;;6127769;23;19920;-78
2022/04/19 11:57:12;;;;;;;4.43;1.98;;;23.70;40.40;;;;;;6151540;23;20053;-76
2022/04/19 11:59:46;;;;;;;8.55;2.80;;;23.80;39.90;;;;;;6126207;23;20109;-77
2022/04/19 12:02:20;;;;;;;5.90;2.45;;;24.10;43.20;;;;;;6101391;23;20028;-78
2022/04/19 12:04:52;;;;;;;4.78;2.60;;;24.50;43.50;;;;;;6126511;23;20032;-80
2022/04/19 12:07:20;;;;;;;12.10;2.38;;;24.30;41.90;;;;;;6201169;23;20032;-79
2022/04/19 12:09:57;;;;;;;5.90;2.53;;;24.50;42.80;;;;;;6212617;23;20028;-79
2022/04/19 12:12:23;;;;;;;4.72;2.63;;;24.50;42.90;;;;;;6212602;23;20550;-79
2022/04/19 12:14:52;;;;;;;6.18;2.38;;;24.60;41.70;;;;;;6187000;23;20025;-79
2022/04/19 12:17:23;;;;;;;4.38;2.25;;;24.90;41.80;;;;;;6213488;23;20111;-78
2022/04/19 12:20:00;;;;;;;8.40;2.40;;;25.20;42.10;;;;;;6189862;23;20393;-79
2022/04/19 12:22:26;;;;;;;5.45;2.28;;;25.30;42.30;;;;;;6216814;23;20025;-79
2022/04/19 12:24:58;;;;;;;6.78;2.25;;;25.40;43.20;;;;;;6191204;23;20107;-80
2022/04/19 12:27:31;;;;;;;19.92;3.72;;;25.50;44.30;;;;;;6216264;23;20099;-78
2022/04/19 12:30:03;;;;;;;6.25;2.35;;;25.70;44.90;;;;;;6216159;23;20032;-78
2022/04/19 12:32:51;;;;;;;5.30;2.33;;;25.80;45.10;;;;;;6217255;23;20039;-81
2022/04/19 12:35:17;;;;;;;7.63;2.10;;;25.60;46.40;;;;;;6214702;23;20020;-80
2022/04/19 12:38:02;;;;;;;6.50;2.28;;;25.90;45.70;;;;;;6216255;23;20028;-80
2022/04/19 12:40:28;;;;;;;16.50;3.40;;;26.00;45.70;;;;;;6213975;23;20028;-84
2022/04/19 12:42:55;;;;;;;6.85;2.00;;;25.90;44.10;;;;;;6213968;23;20379;-81
2022/04/19 12:45:31;;;;;;;10.38;2.50;;;26.10;44.50;;;;;;6216405;23;20395;-82
2022/04/19 12:48:00;;;;;;;6.35;2.33;;;26.10;44.40;;;;;;6214369;23;20021;-81
2022/04/19 12:50:27;;;;;;;7.50;2.42;;;26.10;45.10;;;;;;6213243;23;20091;-78
2022/04/19 12:52:53;;;;;;;5.78;2.30;;;26.20;45.30;;;;;;6239573;23;20052;-79
2022/04/19 12:55:29;;;;;;;6.80;2.60;;;26.60;44.40;;;;;;6214266;23;20013;-81
2022/04/19 12:58:10;;;;;;;8.40;2.58;;;26.60;44.00;;;;;;6189185;23;20111;-80
2022/04/19 13:00:37;;;;;;;21.27;4.28;;;26.90;44.00;;;;;;6213482;23;20028;-77
2022/04/19 13:03:04;;;;;;;7.90;3.15;;;27.40;43.00;;;;;;6215433;23;20028;-79
2022/04/19 13:13:46;;;;;;;;;;;28.10;41.80;;;;;;6216322;23;20356;-80
2022/04/19 13:16:15;;;;;;;8.85;3.97;;;28.50;41.70;;;;;;6215793;23;19955;-80
2022/04/19 13:18:41;;;;;;;9.20;3.25;;;28.40;41.60;;;;;;6235185;23;20075;-79
2022/04/19 13:21:07;;;;;;;8.65;3.72;;;28.40;41.60;;;;;;6188959;23;20021;-78
2022/04/19 13:23:35;;;;;;;12.05;4.20;;;28.40;41.10;;;;;;6213495;23;20020;-79
2022/04/19 13:26:02;;;;;;;9.45;3.03;;;28.60;40.60;;;;;;6215151;23;20031;-80
2022/04/19 13:28:27;;;;;;;8.07;3.58;;;28.50;40.80;;;;;;6214967;23;20024;-80
2022/04/19 13:30:53;;;;;;;10.68;3.67;;;28.60;41.10;;;;;;6214144;23;20054;-79
2022/04/19 13:33:19;;;;;;;10.38;3.65;;;29.00;40.50;;;;;;6215419;23;20468;-79
2022/04/19 13:35:45;;;;;;;12.18;3.30;;;29.00;39.90;;;;;;6214275;23;20028;-79
2022/04/19 13:38:26;;;;;;;8.05;3.85;;;29.40;39.50;;;;;;6237443;23;20020;-77
2022/04/19 13:40:52;;;;;;;9.35;3.75;;;29.80;39.00;;;;;;6216032;23;20034;-80
2022/04/19 13:43:19;;;;;;;10.73;3.65;;;29.90;38.30;;;;;;6213956;23;20076;-79
2022/04/19 13:45:49;;;;;;;15.60;3.85;;;30.10;38.10;;;;;;6188620;23;20028;-78